Alta Vista, IA (50603)

4:26 AM CDT on July 30, 2014 (GMT -0500)
Charles City Municipal (KCCY) Elev 1125 ft | 43.07 °N, 92.61 °W | Change Station

Current weather conditions updated 11 minutes ago

Clear
Clear
55 °F
Feels Like 55 °F
N
5
Wind Variable Wind from WNW

Today is forecast to be nearly the same temperature as yesterday. Partly cloudy with a stray thunderstorm.

Today
High -- | Low -- °F
--% Chance of Precip.
Yesterday
High -- | Low -- °F
Precip. -- in
5:58 AM 8:33 PM
Waxing Crescent, 10% visible
Pressure 30.08 in
Visibility 10.0 miles
Clouds Clear
Dew Point 54 °F
Humidity 94%
Rainfall 0.00 in
Snow Depth Not available.
UV 0 out of 12
Pollen 6.60 out of 12
Air Quality Not available.
Flu Activity Not available.
METAR KCCY 300915Z AUTO 29004KT 10SM CLR 13/12 A3008 RMK AO2

More Conditions Fewer Conditions

Pressure 30.08 in
Visibility 10.0 miles
Clouds Clear
Dew Point 54 °F
Humidity 94%
Rainfall 0.00 in
Snow Depth Not available.
UV 0 out of 12
Pollen 6.60 out of 12
Air Quality Not available.
Flu Activity Not available.
METAR KCCY 300915Z AUTO 29004KT 10SM CLR 13/12 A3008 RMK AO2

More Conditions Fewer Conditions

10-Day Weather Forecast

Almanac

Astronomy

Jul. 30, 2014 Rise Set
Actual Time 5:58 AM CDT 8:33 PM CDT
Civil Twilight 5:25 AM CDT 9:05 PM CDT
Nautical Twilight 4:44 AM CDT 9:46 PM CDT
Astronomical Twilight 3:58 AM CDT 10:32 PM CDT
Moon 9:37 AM CDT 10:08 PM CDT
Length of Visible Light 15h 40m
Length of Day
14h 35m
Tomorrow will be 2m 12s shorter.
Waxing Crescent, 10% of the Moon is Illuminated
Today
Waxing Crescent
Aug 3
First Quarter
Aug 10
Full
Aug 17
Last Quarter
Aug 25
New

Today's Extremes

State Highs State Lows

Community

WunderPhotos

Upload Photos

1,739,029 photos uploaded!

WunderBlogs® & News

By Dr. Jeff Masters
Director of Meteorology, Weather Underground
By Kari Strenfel
Meteorologist, Weather Underground
By Christopher C. Burt
Weather Historian, Weather Underground
July 29, 2014
July 29, 2014
July 29, 2014

Nearby

Snow Depth

Station Depth Elevation
No new snow has been reported.

Earthquake Activity

City Distance Mag. Time & Date
No recent earthquake activity has been reported nearby.
Minimum magnitude displayed is 2.5.

Coastal Water Temperatures

Place Temperature
No Stations Reporting

Nearby Weather Stations

Station Location Temp. Dew Point Humidity Wind Precip. Elev Updated Type
Osage, IA 57.8 °F 51 °F 79% North  at  0.0 mph 0.00 in / hr 1173 ft 4:26 AM CDT Normal
Radio Station N0VTZ; 5 Mi. North of, Sumner, IA 55.9 °F -44 °F - West  at  0.0 mph 0.00 in / hr 1145 ft 4:26 AM CDT Rapid Fire
Spillville Iowa, Fort Atkinson, IA 55.7 °F 54 °F 95% NE  at  0.0 mph 0.00 in / hr 1129 ft 4:14 AM CDT Normal

Show More Stations Show Fewer Stations